Time;durP1;ratioP1;P1;durP2;ratioP2;P2;SDS_P1;SDS_P2;PMS_P1;PMS_P2;Temp;Humidity;BMP_temperature;BMP_pressure;BME280_temperature;BME280_humidity;BME280_pressure;Samples;Min_cycle;Max_cycle;Signal;HPM_P1;HPM_P2
2023/02/20 00:00:11;;;;;;;;;;;;;;;;;;6158411;23;19967;-77
2023/02/20 00:02:37;;;;;;;;;;;;;;;;;;6154646;23;19916;-77
2023/02/20 00:05:02;;;;;;;;;;;;;;;;;;6155524;23;19908;-78
2023/02/20 00:07:28;;;;;;;;;;;;;;;;;;6154598;23;20310;-79
2023/02/20 00:09:53;;;;;;;;;;;;;;;;;;6155822;23;19915;-79
2023/02/20 00:12:18;;;;;;;;;;;;;;;;;;6159067;23;19909;-79
2023/02/20 00:14:44;;;;;;;;;;;;;;;;;;6155537;23;19987;-78
2023/02/20 00:17:09;;;;;;;;;;;;;;;;;;6130008;23;20346;-80
2023/02/20 00:19:34;;;;;;;;;;;;;;;;;;6153737;23;19919;-76
2023/02/20 00:22:00;;;;;;;;;;;;;;;;;;6156002;23;19964;-78
2023/02/20 00:24:25;;;;;;;;;;;;;;;;;;6130460;23;20327;-79
2023/02/20 00:26:50;;;;;;;;;;;;;;;;;;6155169;23;19909;-78
2023/02/20 00:29:16;;;;;;;;;;;;;;;;;;6154300;23;20339;-77
2023/02/20 00:31:42;;;;;;;;;;;;;;;;;;6154356;23;20339;-78
2023/02/20 00:34:07;;;;;;;;;;;;;;;;;;6155738;23;19908;-78
2023/02/20 00:36:32;;;;;;;;;;;;;;;;;;6158348;23;19912;-79
2023/02/20 00:38:58;;;;;;;;;;;;;;;;;;6155711;23;20361;-78
2023/02/20 00:41:23;;;;;;;;;;;;;;;;;;6155285;23;20286;-78
2023/02/20 00:43:48;;;;;;;;;;;;;;;;;;6153996;23;19912;-79
2023/02/20 00:46:14;;;;;;;;;;;;;;;;;;6154336;23;20345;-78
2023/02/20 00:48:40;;;;;;;;;;;;;;;;;;6157279;23;20353;-79
2023/02/20 00:51:25;;;;;;;;;;;;;;;;;;6155505;23;19959;-78
2023/02/20 00:53:50;;;;;;;;;;;;;;;;;;6154057;23;19908;-78
2023/02/20 00:56:15;;;;;;;;;;;;;;;;;;6154596;23;19909;-78
2023/02/20 00:58:41;;;;;;;;;;;;;;;;;;6156079;23;20008;-77
2023/02/20 01:01:06;;;;;;;;;;;;;;;;;;6156076;23;19909;-78
2023/02/20 01:03:31;;;;;;;;;;;;;;;;;;6154518;23;19913;-77
2023/02/20 01:05:57;;;;;;;;;;;;;;;;;;6153825;23;20338;-77
2023/02/20 01:08:23;;;;;;;;;;;;;;;;;;6155843;23;19916;-77
2023/02/20 01:10:48;;;;;;;;;;;;;;;;;;6153928;23;19915;-77
2023/02/20 01:13:13;;;;;;;;;;;;;;;;;;6156880;23;20287;-77
2023/02/20 01:15:39;;;;;;;;;;;;;;;;;;6154800;23;19983;-79
2023/02/20 01:18:07;;;;;;;;;;;;;;;;;;6129372;23;19920;-77
2023/02/20 01:20:32;;;;;;;;;;;;;;;;;;6155648;23;19915;-77
2023/02/20 01:22:58;;;;;;;;;;;;;;;;;;6154319;23;19909;-77
2023/02/20 01:25:23;;;;;;;;;;;;;;;;;;6155664;23;20238;-79
2023/02/20 01:27:48;;;;;;;;;;;;;;;;;;6155659;23;19916;-79
2023/02/20 01:30:14;;;;;;;;;;;;;;;;;;6155160;23;20311;-80
2023/02/20 01:32:41;;;;;;;;;;;;;;;;;;6105561;23;19908;-77
2023/02/20 01:35:06;;;;;;;;;;;;;;;;;;6154293;23;19909;-79
2023/02/20 01:37:32;;;;;;;;;;;;;;;;;;6158345;23;19936;-78
2023/02/20 01:39:58;;;;;;;;;;;;;;;;;;6154637;23;20330;-78
2023/02/20 01:42:23;;;;;;;;;;;;;;;;;;6155016;23;19943;-80
2023/02/20 01:44:52;;;;;;;;;;;;;;;;;;6153283;23;19913;-79
2023/02/20 01:47:18;;;;;;;;;;;;;;;;;;6156121;23;19908;-78
2023/02/20 01:49:43;;;;;;;;;;;;;;;;;;6157211;23;19915;-79
2023/02/20 01:52:08;;;;;;;;;;;;;;;;;;6156423;23;19916;-78
2023/02/20 01:54:34;;;;;;;;;;;;;;;;;;6155958;23;20334;-77
2023/02/20 01:57:00;;;;;;;;;;;;;;;;;;6153823;23;19912;-78
2023/02/20 01:59:25;;;;;;;;;;;;;;;;;;6153891;23;19958;-78
2023/02/20 02:01:51;;;;;;;;;;;;;;;;;;6156121;23;19920;-80
2023/02/20 02:04:16;;;;;;;;;;;;;;;;;;6156337;23;20362;-77
2023/02/20 02:06:41;;;;;;;;;;;;;;;;;;6153885;23;20145;-78
2023/02/20 02:09:07;;;;;;;;;;;;;;;;;;6154832;23;20331;-77
2023/02/20 02:11:34;;;;;;;;;;;;;;;;;;6154655;23;19916;-78
2023/02/20 02:14:02;;;;;;;;;;;;;;;;;;6155965;23;19944;-77
2023/02/20 02:16:27;;;;;;;;;;;;;;;;;;6153922;23;19915;-78
2023/02/20 02:18:52;;;;;;;;;;;;;;;;;;6153911;23;19920;-78
2023/02/20 02:21:18;;;;;;;;;;;;;;;;;;6156012;23;19904;-77
2023/02/20 02:23:43;;;;;;;;;;;;;;;;;;6155925;23;19908;-77
2023/02/20 02:26:08;;;;;;;;;;;;;;;;;;6155653;23;19975;-78
2023/02/20 02:28:34;;;;;;;;;;;;;;;;;;6155827;23;19924;-77
2023/02/20 02:30:59;;;;;;;;;;;;;;;;;;6155493;23;19963;-76
2023/02/20 02:33:24;;;;;;;;;;;;;;;;;;6153725;23;20247;-77
2023/02/20 02:35:50;;;;;;;;;;;;;;;;;;6155832;23;19913;-78
2023/02/20 02:38:16;;;;;;;;;;;;;;;;;;6154749;23;19928;-78
2023/02/20 02:40:41;;;;;;;;;;;;;;;;;;6154803;23;19992;-78
2023/02/20 02:43:07;;;;;;;;;;;;;;;;;;6129614;23;20343;-77
2023/02/20 02:45:32;;;;;;;;;;;;;;;;;;6155079;23;19905;-78
2023/02/20 02:47:58;;;;;;;;;;;;;;;;;;6155289;23;19909;-77
2023/02/20 02:50:23;;;;;;;;;;;;;;;;;;6156281;23;19944;-77
2023/02/20 02:52:48;;;;;;;;;;;;;;;;;;6155783;23;19909;-78
2023/02/20 02:55:14;;;;;;;;;;;;;;;;;;6155799;23;19909;-78
2023/02/20 02:57:39;;;;;;;;;;;;;;;;;;6157871;23;19912;-77
2023/02/20 03:00:04;;;;;;;;;;;;;;;;;;6157084;23;20331;-78
2023/02/20 03:02:30;;;;;;;;;;;;;;;;;;6157135;23;20326;-76
2023/02/20 03:04:55;;;;;;;;;;;;;;;;;;6154846;23;19940;-78
2023/02/20 03:07:21;;;;;;;;;;;;;;;;;;6156550;23;20392;-77
2023/02/20 03:09:46;;;;;;;;;;;;;;;;;;6156790;23;19909;-78
2023/02/20 03:12:11;;;;;;;;;;;;;;;;;;6156852;23;19912;-79
2023/02/20 03:17:22;;;;;;;;;;;;;;;;;;6155881;23;19915;-79
2023/02/20 03:19:47;;;;;;;;;;;;;;;;;;6155466;23;19991;-78
2023/02/20 03:22:13;;;;;;;;;;;;;;;;;;6155088;23;19940;-78
2023/02/20 03:24:54;;;;;;;;;;;;;;;;;;6154220;23;19908;-77
2023/02/20 03:27:20;;;;;;;;;;;;;;;;;;6156349;23;19916;-78
2023/02/20 03:29:46;;;;;;;;;;;;;;;;;;6156732;23;19908;-78
2023/02/20 03:43:20;;;;;;;;;;;;;;;;;;6155102;23;20326;-79
2023/02/20 03:45:46;;;;;;;;;;;;;;;;;;6129808;23;19909;-79
2023/02/20 03:48:14;;;;;;;;;;;;;;;;;;6107007;23;19909;-79
2023/02/20 03:53:27;;;;;;;;;;;;;;;;;;6129935;23;19960;-79
2023/02/20 03:55:53;;;;;;;;;;;;;;;;;;6155605;23;20246;-79
2023/02/20 03:58:18;;;;;;;;;;;;;;;;;;6156133;23;19999;-79
2023/02/20 04:00:44;;;;;;;;;;;;;;;;;;6130624;23;20388;-79
2023/02/20 04:03:09;;;;;;;;;;;;;;;;;;6157832;23;20027;-78
2023/02/20 04:05:38;;;;;;;;;;;;;;;;;;6154169;23;19905;-78
2023/02/20 04:08:04;;;;;;;;;;;;;;;;;;6154627;23;19940;-78
2023/02/20 04:10:31;;;;;;;;;;;;;;;;;;6154732;23;19993;-78
2023/02/20 04:12:57;;;;;;;;;;;;;;;;;;6157427;23;19909;-78
2023/02/20 04:15:22;;;;;;;;;;;;;;;;;;6155249;23;19920;-78
2023/02/20 04:17:48;;;;;;;;;;;;;;;;;;6154994;23;19908;-77
2023/02/20 04:20:14;;;;;;;;;;;;;;;;;;6154584;23;19959;-78
2023/02/20 04:22:45;;;;;;;;;;;;;;;;;;6154809;23;20401;-78
2023/02/20 04:25:11;;;;;;;;;;;;;;;;;;6155894;23;19916;-78
2023/02/20 04:27:37;;;;;;;;;;;;;;;;;;6155706;23;19909;-78
2023/02/20 04:30:02;;;;;;;;;;;;;;;;;;6155611;23;19931;-78
2023/02/20 04:32:27;;;;;;;;;;;;;;;;;;6155972;23;19909;-79
2023/02/20 04:34:54;;;;;;;;;;;;;;;;;;6130210;23;19909;-76
2023/02/20 04:37:19;;;;;;;;;;;;;;;;;;6130589;23;19975;-79
2023/02/20 04:39:46;;;;;;;;;;;;;;;;;;6158087;23;19919;-79
2023/02/20 04:42:12;;;;;;;;;;;;;;;;;;6155957;23;20308;-78
2023/02/20 04:44:38;;;;;;;;;;;;;;;;;;6157199;23;19909;-79
2023/02/20 04:47:06;;;;;;;;;;;;;;;;;;6158408;23;19909;-78
2023/02/20 04:49:32;;;;;;;;;;;;;;;;;;6158593;23;19909;-77
2023/02/20 04:51:59;;;;;;;;;;;;;;;;;;6158198;23;19909;-77
2023/02/20 04:54:25;;;;;;;;;;;;;;;;;;6158528;23;19916;-76
2023/02/20 04:56:52;;;;;;;;;;;;;;;;;;6133884;23;22725;-78
2023/02/20 04:59:18;;;;;;;;;;;;;;;;;;6134877;23;20242;-77
2023/02/20 05:01:46;;;;;;;;;;;;;;;;;;6138033;23;19909;-78
2023/02/20 05:04:12;;;;;;;;;;;;;;;;;;6163566;23;19912;-79
2023/02/20 05:06:37;;;;;;;;;;;;;;;;;;6163762;23;19943;-80
2023/02/20 05:09:03;;;;;;;;;;;;;;;;;;6162669;23;19954;-77
2023/02/20 05:11:28;;;;;;;;;;;;;;;;;;6163032;23;19916;-79
2023/02/20 05:13:54;;;;;;;;;;;;;;;;;;6162655;23;19908;-79
2023/02/20 05:16:19;;;;;;;;;;;;;;;;;;6160344;23;20390;-79
2023/02/20 05:18:45;;;;;;;;;;;;;;;;;;6160238;23;19917;-79
2023/02/20 05:23:54;;;;;;;;;;;;;;;;;;6156220;23;19908;-78
2023/02/20 05:26:19;;;;;;;;;;;;;;;;;;6132800;23;20342;-79
2023/02/20 05:28:45;;;;;;;;;;;;;;;;;;6155503;23;19912;-79
2023/02/20 05:31:10;;;;;;;;;;;;;;;;;;6155250;23;19908;-77
2023/02/20 05:33:36;;;;;;;;;;;;;;;;;;6154647;23;19940;-77
2023/02/20 05:36:01;;;;;;;;;;;;;;;;;;6156293;23;19921;-75
2023/02/20 05:38:26;;;;;;;;;;;;;;;;;;6159953;23;19913;-76
2023/02/20 05:40:52;;;;;;;;;;;;;;;;;;6157002;23;20334;-75
2023/02/20 05:43:17;;;;;;;;;;;;;;;;;;6157555;23;20406;-75
2023/02/20 05:45:42;;;;;;;;;;;;;;;;;;6156398;23;20270;-76
2023/02/20 05:48:08;;;;;;;;;;;;;;;;;;6156124;23;20310;-76
2023/02/20 05:50:33;;;;;;;;;;;;;;;;;;6181128;23;19908;-75
2023/02/20 05:52:58;;;;;;;;;;;;;;;;;;6156023;23;19932;-76
2023/02/20 05:55:24;;;;;;;;;;;;;;;;;;6157730;23;19936;-76
2023/02/20 05:57:49;;;;;;;;;;;;;;;;;;6156288;23;19915;-76
2023/02/20 06:00:15;;;;;;;;;;;;;;;;;;6159012;23;19908;-76
2023/02/20 06:02:40;;;;;;;;;;;;;;;;;;6159904;23;19909;-76
2023/02/20 06:05:06;;;;;;;;;;;;;;;;;;6180291;23;19924;-76
2023/02/20 06:07:31;;;;;;;;;;;;;;;;;;6159084;23;19971;-76
2023/02/20 06:09:57;;;;;;;;;;;;;;;;;;6182132;23;20334;-75
2023/02/20 06:12:22;;;;;;;;;;;;;;;;;;6159117;23;20337;-75
2023/02/20 06:14:47;;;;;;;;;;;;;;;;;;6158420;23;19909;-76
2023/02/20 06:17:13;;;;;;;;;;;;;;;;;;6156656;23;19967;-75
2023/02/20 06:19:38;;;;;;;;;;;;;;;;;;6157321;23;19987;-76
2023/02/20 06:22:04;;;;;;;;;;;;;;;;;;6156978;23;19909;-76
2023/02/20 06:24:29;;;;;;;;;;;;;;;;;;6157019;23;19959;-76
2023/02/20 06:26:54;;;;;;;;;;;;;;;;;;6180085;23;20315;-76
2023/02/20 06:29:20;;;;;;;;;;;;;;;;;;6158578;23;19908;-76
2023/02/20 06:31:45;;;;;;;;;;;;;;;;;;6158428;23;19959;-76
2023/02/20 06:34:11;;;;;;;;;;;;;;;;;;6157718;23;19908;-76
2023/02/20 06:36:36;;;;;;;;;;;;;;;;;;6158536;23;20322;-76
2023/02/20 06:39:01;;;;;;;;;;;;;;;;;;6158997;23;19913;-75
2023/02/20 06:41:27;;;;;;;;;;;;;;;;;;6160869;23;19915;-76
2023/02/20 06:43:52;;;;;;;;;;;;;;;;;;6185644;23;19911;-76
2023/02/20 06:46:17;;;;;;;;;;;;;;;;;;6163334;23;19908;-76
2023/02/20 06:48:43;;;;;;;;;;;;;;;;;;6190069;23;19916;-76
2023/02/20 06:51:08;;;;;;;;;;;;;;;;;;6166075;23;19909;-76
2023/02/20 06:53:37;;;;;;;;;;;;;;;;;;6168367;23;19952;-76
2023/02/20 06:56:02;;;;;;;;;;;;;;;;;;6158428;23;19936;-76
2023/02/20 06:58:27;;;;;;;;;;;;;;;;;;6157266;23;19913;-75
2023/02/20 07:00:53;;;;;;;;;;;;;;;;;;6155923;23;19916;-75
2023/02/20 07:03:18;;;;;;;;;;;;;;;;;;6157215;23;20245;-75
2023/02/20 07:05:43;;;;;;;;;;;;;;;;;;6156653;23;19909;-75
2023/02/20 07:08:09;;;;;;;;;;;;;;;;;;6157228;23;20227;-75
2023/02/20 07:10:34;;;;;;;;;;;;;;;;;;6155521;23;19979;-75
2023/02/20 07:13:02;;;;;;;;;;;;;;;;;;6156690;23;19909;-76
2023/02/20 07:15:27;;;;;;;;;;;;;;;;;;6156836;23;19958;-76
2023/02/20 07:17:52;;;;;;;;;;;;;;;;;;6156349;23;19979;-76
2023/02/20 07:20:18;;;;;;;;;;;;;;;;;;6180470;23;20358;-75
2023/02/20 07:22:43;;;;;;;;;;;;;;;;;;6155372;23;20327;-76
2023/02/20 07:25:09;;;;;;;;;;;;;;;;;;6180115;23;19983;-76
2023/02/20 07:27:34;;;;;;;;;;;;;;;;;;6154906;23;19952;-76
2023/02/20 07:29:59;;;;;;;;;;;;;;;;;;6156567;23;19909;-76
2023/02/20 07:32:25;;;;;;;;;;;;;;;;;;6155033;23;19916;-75
2023/02/20 07:34:50;;;;;;;;;;;;;;;;;;6154845;23;19909;-75
2023/02/20 07:37:16;;;;;;;;;;;;;;;;;;6156521;23;19924;-75
2023/02/20 07:39:42;;;;;;;;;;;;;;;;;;6179733;23;20358;-76
2023/02/20 07:42:07;;;;;;;;;;;;;;;;;;6180082;23;19908;-76
2023/02/20 07:44:45;;;;;;;;;;;;;;;;;;6154106;23;19908;-76
2023/02/20 07:47:11;;;;;;;;;;;;;;;;;;6179469;23;19947;-76
2023/02/20 07:49:36;;;;;;;;;;;;;;;;;;6156981;23;19908;-76
2023/02/20 07:52:01;;;;;;;;;;;;;;;;;;6180257;23;19904;-76
2023/02/20 07:54:27;;;;;;;;;;;;;;;;;;6156397;23;19909;-76
2023/02/20 07:56:52;;;;;;;;;;;;;;;;;;6178620;23;20355;-76
2023/02/20 07:59:17;;;;;;;;;;;;;;;;;;6180576;23;20398;-75
2023/02/20 08:01:43;;;;;;;;;;;;;;;;;;6156418;23;20330;-75
2023/02/20 08:04:08;;;;;;;;;;;;;;;;;;6154191;23;19909;-76
2023/02/20 08:06:34;;;;;;;;;;;;;;;;;;6156337;23;19909;-75
2023/02/20 08:08:59;;;;;;;;;;;;;;;;;;6179679;23;19909;-76
2023/02/20 08:11:24;;;;;;;;;;;;;;;;;;6154591;23;19909;-76
2023/02/20 08:13:50;;;;;;;;;;;;;;;;;;6156815;23;19908;-76
2023/02/20 08:16:15;;;;;;;;;;;;;;;;;;6155789;23;19912;-76
2023/02/20 08:18:41;;;;;;;;;;;;;;;;;;6156076;23;19912;-75
2023/02/20 08:21:06;;;;;;;;;;;;;;;;;;6156365;23;19915;-75
2023/02/20 08:23:31;;;;;;;;;;;;;;;;;;6156703;23;20326;-75
2023/02/20 08:25:58;;;;;;;;;;;;;;;;;;6156039;23;19904;-76
2023/02/20 08:28:24;;;;;;;;;;;;;;;;;;6155746;23;19928;-75
2023/02/20 08:30:49;;;;;;;;;;;;;;;;;;6156145;23;19990;-76
2023/02/20 08:33:15;;;;;;;;;;;;;;;;;;6156376;23;19916;-75
2023/02/20 08:35:40;;;;;;;;;;;;;;;;;;6178895;23;19904;-76
2023/02/20 08:38:05;;;;;;;;;;;;;;;;;;6180148;23;20408;-76
2023/02/20 08:40:31;;;;;;;;;;;;;;;;;;6156475;23;19996;-75
2023/02/20 08:42:56;;;;;;;;;;;;;;;;;;6156658;23;19913;-76
2023/02/20 08:45:22;;;;;;;;;;;;;;;;;;6155869;23;19913;-76
2023/02/20 08:47:47;;;;;;;;;;;;;;;;;;6154659;23;19909;-76
2023/02/20 08:50:13;;;;;;;;;;;;;;;;;;6178797;23;19909;-76
2023/02/20 08:52:38;;;;;;;;;;;;;;;;;;6156642;23;19958;-76
2023/02/20 08:55:04;;;;;;;;;;;;;;;;;;6156071;23;19913;-76
2023/02/20 08:57:29;;;;;;;;;;;;;;;;;;6156604;23;19908;-76
2023/02/20 08:59:54;;;;;;;;;;;;;;;;;;6156288;23;19912;-75
2023/02/20 09:02:20;;;;;;;;;;;;;;;;;;6154316;23;19909;-75
2023/02/20 09:04:45;;;;;;;;;;;;;;;;;;6155690;23;19912;-75
2023/02/20 09:07:10;;;;;;;;;;;;;;;;;;6156121;23;20345;-75
2023/02/20 09:09:36;;;;;;;;;;;;;;;;;;6154600;23;19909;-76
2023/02/20 09:12:01;;;;;;;;;;;;;;;;;;6155852;23;20008;-76
2023/02/20 09:14:27;;;;;;;;;;;;;;;;;;6158409;23;19941;-76
2023/02/20 09:16:52;;;;;;;;;;;;;;;;;;6157949;23;20330;-76
2023/02/20 09:19:20;;;;;;;;;;;;;;;;;;6158330;23;19967;-76
2023/02/20 09:21:45;;;;;;;;;;;;;;;;;;6158402;23;20393;-76
2023/02/20 09:24:11;;;;;;;;;;;;;;;;;;6158266;23;19909;-76
2023/02/20 09:26:36;;;;;;;;;;;;;;;;;;6180223;23;19908;-76
2023/02/20 09:29:01;;;;;;;;;;;;;;;;;;6157473;23;19915;-76
2023/02/20 09:31:36;;;;;;;;;;;;;;;;;;6155498;23;19909;-76
2023/02/20 09:34:20;;;;;;;;;;;;;;;;;;6176394;23;19908;-76
2023/02/20 09:36:45;;;;;;;;;;;;;;;;;;6159214;23;19923;-76
2023/02/20 09:39:11;;;;;;;;;;;;;;;;;;6162170;23;19908;-76
2023/02/20 09:41:36;;;;;;;;;;;;;;;;;;6181426;23;19913;-76
2023/02/20 09:44:02;;;;;;;;;;;;;;;;;;6158513;23;19932;-76
2023/02/20 09:46:27;;;;;;;;;;;;;;;;;;6185131;23;19909;-78
2023/02/20 09:48:52;;;;;;;;;;;;;;;;;;6160600;23;19945;-77
2023/02/20 09:51:18;;;;;;;;;;;;;;;;;;6160412;23;19951;-77
2023/02/20 09:53:43;;;;;;;;;;;;;;;;;;6158952;23;20247;-79
2023/02/20 09:56:08;;;;;;;;;;;;;;;;;;6158455;23;19908;-79
2023/02/20 09:58:34;;;;;;;;;;;;;;;;;;6155848;23;20335;-79
2023/02/20 10:01:00;;;;;;;;;;;;;;;;;;6159405;23;19909;-79
2023/02/20 10:03:25;;;;;;;;;;;;;;;;;;6161183;23;19936;-79
2023/02/20 10:05:51;;;;;;;;;;;;;;;;;;6160408;23;20334;-78
2023/02/20 10:08:16;;;;;;;;;;;;;;;;;;6160228;23;19939;-79
2023/02/20 10:10:42;;;;;;;;;;;;;;;;;;6190130;23;19916;-82
2023/02/20 10:13:07;;;;;;;;;;;;;;;;;;6169185;23;20358;-80
2023/02/20 10:15:33;;;;;;;;;;;;;;;;;;6164510;23;20231;-81
2023/02/20 10:17:58;;;;;;;;;;;;;;;;;;6186452;23;19915;-76
2023/02/20 10:20:24;;;;;;;;;;;;;;;;;;6161826;23;20474;-75
2023/02/20 10:22:49;;;;;;;;;;;;;;;;;;6185881;23;19955;-76
2023/02/20 10:25:15;;;;;;;;;;;;;;;;;;6190720;23;19932;-81
2023/02/20 10:27:40;;;;;;;;;;;;;;;;;;6164415;23;19909;-78
2023/02/20 10:30:05;;;;;;;;;;;;;;;;;;6166427;23;19952;-78
2023/02/20 10:32:31;;;;;;;;;;;;;;;;;;6163436;23;19908;-78
2023/02/20 10:34:56;;;;;;;;;;;;;;;;;;6160625;23;20393;-79
2023/02/20 10:37:21;;;;;;;;;;;;;;;;;;6160605;23;19913;-79
2023/02/20 10:39:47;;;;;;;;;;;;;;;;;;6162106;23;19913;-78
2023/02/20 10:42:12;;;;;;;;;;;;;;;;;;6159734;23;19987;-79
2023/02/20 10:44:38;;;;;;;;;;;;;;;;;;6159982;23;19909;-78
2023/02/20 10:47:03;;;;;;;;;;;;;;;;;;6159730;23;19908;-78
2023/02/20 10:49:28;;;;;;;;;;;;;;;;;;6158829;23;19908;-78
2023/02/20 10:51:54;;;;;;;;;;;;;;;;;;6179476;23;19909;-78
2023/02/20 10:54:19;;;;;;;;;;;;;;;;;;6155168;23;19913;-79
2023/02/20 10:56:44;;;;;;;;;;;;;;;;;;6156056;23;19963;-78
2023/02/20 10:59:10;;;;;;;;;;;;;;;;;;6179218;23;20334;-78
2023/02/20 11:01:35;;;;;;;;;;;;;;;;;;6155822;23;19920;-78
2023/02/20 11:04:01;;;;;;;;;;;;;;;;;;6156501;23;20360;-78
2023/02/20 11:06:26;;;;;;;;;;;;;;;;;;6161506;23;19916;-78
2023/02/20 11:08:51;;;;;;;;;;;;;;;;;;6194106;23;19899;-79
2023/02/20 11:11:17;;;;;;;;;;;;;;;;;;6182233;23;19908;-77
2023/02/20 11:13:42;;;;;;;;;;;;;;;;;;6157033;23;20462;-79
2023/02/20 11:16:07;;;;;;;;;;;;;;;;;;6157903;23;19909;-78
2023/02/20 11:18:33;;;;;;;;;;;;;;;;;;6158134;23;19944;-78
2023/02/20 11:20:58;;;;;;;;;;;;;;;;;;6157360;23;20353;-79
2023/02/20 11:23:24;;;;;;;;;;;;;;;;;;6156700;23;19932;-78
2023/02/20 11:25:49;;;;;;;;;;;;;;;;;;6157627;23;19963;-78
2023/02/20 11:28:18;;;;;;;;;;;;;;;;;;6162635;23;19893;-83
2023/02/20 11:30:43;;;;;;;;;;;;;;;;;;6182005;23;19916;-82
2023/02/20 11:33:09;;;;;;;;;;;;;;;;;;6182014;23;19896;-83
2023/02/20 11:35:34;;;;;;;;;;;;;;;;;;6181134;23;20335;-82
2023/02/20 11:38:00;;;;;;;;;;;;;;;;;;6171919;23;19921;-82
2023/02/20 11:40:25;;;;;;;;;;;;;;;;;;6180779;23;19924;-83
2023/02/20 11:42:51;;;;;;;;;;;;;;;;;;6178615;23;19909;-76
2023/02/20 11:45:16;;;;;;;;;;;;;;;;;;6153641;23;19908;-78
2023/02/20 11:47:41;;;;;;;;;;;;;;;;;;6178714;23;20007;-78
2023/02/20 11:50:07;;;;;;;;;;;;;;;;;;6153463;23;19905;-79
2023/02/20 11:52:33;;;;;;;;;;;;;;;;;;6154351;23;19909;-77
2023/02/20 11:54:58;;;;;;;;;;;;;;;;;;6156025;23;20326;-77
2023/02/20 11:57:24;;;;;;;;;;;;;;;;;;6179056;23;19935;-78
2023/02/20 11:59:49;;;;;;;;;;;;;;;;;;6179135;23;19935;-77
2023/02/20 12:02:14;;;;;;;;;;;;;;;;;;6154814;23;19913;-78
2023/02/20 12:04:40;;;;;;;;;;;;;;;;;;6130472;23;19924;-78
2023/02/20 12:07:05;;;;;;;;;;;;;;;;;;6179453;23;19972;-78
2023/02/20 12:09:30;;;;;;;;;;;;;;;;;;6156042;23;19915;-77
2023/02/20 12:11:56;;;;;;;;;;;;;;;;;;6156031;23;19913;-79
2023/02/20 12:14:21;;;;;;;;;;;;;;;;;;6157147;23;20339;-77
2023/02/20 12:16:47;;;;;;;;;;;;;;;;;;6177430;23;19947;-77
2023/02/20 12:19:12;;;;;;;;;;;;;;;;;;6153758;23;19913;-77
2023/02/20 12:21:37;;;;;;;;;;;;;;;;;;6154458;23;19939;-77
2023/02/20 12:24:03;;;;;;;;;;;;;;;;;;6178850;23;20334;-77
2023/02/20 12:26:28;;;;;;;;;;;;;;;;;;6153607;23;19987;-77
2023/02/20 12:28:54;;;;;;;;;;;;;;;;;;6181013;23;19909;-78
2023/02/20 12:31:19;;;;;;;;;;;;;;;;;;6156753;23;20346;-76
2023/02/20 12:33:47;;;;;;;;;;;;;;;;;;6155049;23;19913;-78
2023/02/20 12:36:12;;;;;;;;;;;;;;;;;;6155908;23;19955;-76
2023/02/20 12:38:38;;;;;;;;;;;;;;;;;;6179264;23;19913;-76
2023/02/20 12:41:03;;;;;;;;;;;;;;;;;;6154807;23;20105;-79
2023/02/20 12:43:28;;;;;;;;;;;;;;;;;;6177978;23;19955;-78
2023/02/20 12:45:54;;;;;;;;;;;;;;;;;;6154600;23;19928;-77
2023/02/20 12:48:19;;;;;;;;;;;;;;;;;;6154433;23;20366;-78
2023/02/20 12:50:45;;;;;;;;;;;;;;;;;;6152397;23;20243;-78
2023/02/20 12:53:11;;;;;;;;;;;;;;;;;;6154733;23;19973;-78
2023/02/20 12:55:38;;;;;;;;;;;;;;;;;;6153638;23;19940;-78
2023/02/20 12:58:05;;;;;;;;;;;;;;;;;;6153168;23;19996;-79
2023/02/20 13:00:31;;;;;;;;;;;;;;;;;;6128904;23;20307;-77
2023/02/20 13:02:56;;;;;;;;;;;;;;;;;;6155032;23;19955;-77
2023/02/20 13:05:21;;;;;;;;;;;;;;;;;;6177843;23;20250;-77
2023/02/20 13:07:47;;;;;;;;;;;;;;;;;;6153362;23;19909;-77
2023/02/20 13:10:13;;;;;;;;;;;;;;;;;;6152492;23;20195;-76
2023/02/20 13:12:38;;;;;;;;;;;;;;;;;;6177759;23;19908;-78
2023/02/20 13:15:03;;;;;;;;;;;;;;;;;;6152497;23;19933;-79
2023/02/20 13:17:29;;;;;;;;;;;;;;;;;;6154413;23;19909;-78
2023/02/20 13:19:54;;;;;;;;;;;;;;;;;;6153555;23;19912;-78
2023/02/20 13:22:19;;;;;;;;;;;;;;;;;;6155144;23;20350;-78
2023/02/20 13:24:45;;;;;;;;;;;;;;;;;;6154664;23;19913;-80
2023/02/20 13:27:10;;;;;;;;;;;;;;;;;;6178203;23;20250;-79
2023/02/20 13:29:36;;;;;;;;;;;;;;;;;;6155699;23;19904;-79
2023/02/20 13:32:01;;;;;;;;;;;;;;;;;;6154892;23;20376;-79
2023/02/20 13:34:27;;;;;;;;;;;;;;;;;;6157990;23;19939;-80
2023/02/20 13:36:52;;;;;;;;;;;;;;;;;;6157272;23;20357;-80
2023/02/20 13:39:17;;;;;;;;;;;;;;;;;;6156920;23;19920;-82
2023/02/20 13:41:43;;;;;;;;;;;;;;;;;;6156482;23;19916;-81
2023/02/20 13:44:08;;;;;;;;;;;;;;;;;;6157076;23;19909;-81
2023/02/20 13:46:34;;;;;;;;;;;;;;;;;;6154662;23;20337;-78
2023/02/20 13:48:59;;;;;;;;;;;;;;;;;;6179378;23;19939;-80
2023/02/20 13:51:25;;;;;;;;;;;;;;;;;;6155569;23;19923;-88
2023/02/20 13:53:50;;;;;;;;;;;;;;;;;;6133859;23;19928;-88
2023/02/20 13:56:16;;;;;;;;;;;;;;;;;;6130152;23;20234;-86
2023/02/20 13:58:41;;;;;;;;;;;;;;;;;;6177732;23;19908;-89
2023/02/20 14:01:07;;;;;;;;;;;;;;;;;;6154670;23;20281;-89
2023/02/20 14:03:33;;;;;;;;;;;;;;;;;;6154486;23;19992;-89
2023/02/20 14:05:58;;;;;;;;;;;;;;;;;;6152387;23;20323;-87
2023/02/20 14:08:24;;;;;;;;;;;;;;;;;;6155652;23;19909;-89
2023/02/20 14:10:49;;;;;;;;;;;;;;;;;;6154273;23;20250;-88
2023/02/20 14:13:15;;;;;;;;;;;;;;;;;;6155566;23;19912;-84
2023/02/20 14:15:40;;;;;;;;;;;;;;;;;;6156132;23;19916;-80
2023/02/20 14:18:05;;;;;;;;;;;;;;;;;;6184317;23;19944;-79
2023/02/20 14:20:31;;;;;;;;;;;;;;;;;;6163559;23;19978;-79
2023/02/20 14:22:56;;;;;;;;;;;;;;;;;;6187220;23;19932;-79
2023/02/20 14:25:22;;;;;;;;;;;;;;;;;;6166574;23;19919;-79
2023/02/20 14:27:47;;;;;;;;;;;;;;;;;;6165278;23;20318;-80
2023/02/20 14:30:12;;;;;;;;;;;;;;;;;;6163578;23;19909;-79
2023/02/20 14:32:38;;;;;;;;;;;;;;;;;;6162240;23;19912;-77
2023/02/20 14:35:04;;;;;;;;;;;;;;;;;;6163974;23;19960;-78
2023/02/20 14:37:29;;;;;;;;;;;;;;;;;;6172357;23;19936;-78
2023/02/20 14:39:54;;;;;;;;;;;;;;;;;;6173612;23;20370;-78
2023/02/20 14:42:20;;;;;;;;;;;;;;;;;;6174943;23;19940;-79
2023/02/20 14:44:45;;;;;;;;;;;;;;;;;;6159205;23;20341;-79
2023/02/20 14:47:11;;;;;;;;;;;;;;;;;;6157645;23;20339;-77
2023/02/20 14:49:36;;;;;;;;;;;;;;;;;;6182446;23;19921;-78
2023/02/20 14:52:02;;;;;;;;;;;;;;;;;;6154320;23;19951;-78
2023/02/20 14:54:28;;;;;;;;;;;;;;;;;;6179358;23;19919;-79
2023/02/20 14:56:54;;;;;;;;;;;;;;;;;;6180413;23;19913;-79
2023/02/20 14:59:19;;;;;;;;;;;;;;;;;;6181191;23;20389;-81
2023/02/20 15:01:45;;;;;;;;;;;;;;;;;;6155696;23;19999;-79
2023/02/20 15:04:10;;;;;;;;;;;;;;;;;;6156906;23;19916;-78
2023/02/20 15:06:36;;;;;;;;;;;;;;;;;;6154958;23;19979;-79
2023/02/20 15:09:02;;;;;;;;;;;;;;;;;;6156121;23;19912;-79
2023/02/20 15:11:27;;;;;;;;;;;;;;;;;;6179797;23;19912;-80
2023/02/20 15:13:53;;;;;;;;;;;;;;;;;;6179672;23;19931;-77
2023/02/20 15:16:19;;;;;;;;;;;;;;;;;;6154915;23;19917;-78
2023/02/20 15:18:44;;;;;;;;;;;;;;;;;;6178399;23;19915;-78
2023/02/20 15:21:10;;;;;;;;;;;;;;;;;;6178465;23;20327;-78
2023/02/20 15:23:35;;;;;;;;;;;;;;;;;;6155276;23;19955;-80
2023/02/20 15:26:01;;;;;;;;;;;;;;;;;;6177860;23;19909;-78
2023/02/20 15:28:26;;;;;;;;;;;;;;;;;;6154053;23;19909;-78
2023/02/20 15:30:52;;;;;;;;;;;;;;;;;;6153621;23;19909;-78
2023/02/20 15:33:17;;;;;;;;;;;;;;;;;;6155117;23;20250;-78
2023/02/20 15:35:43;;;;;;;;;;;;;;;;;;6153776;23;19909;-78
2023/02/20 15:38:08;;;;;;;;;;;;;;;;;;6153736;23;19912;-78
2023/02/20 15:40:34;;;;;;;;;;;;;;;;;;6154103;23;19909;-78
2023/02/20 15:42:59;;;;;;;;;;;;;;;;;;6155438;23;19913;-77
2023/02/20 15:45:25;;;;;;;;;;;;;;;;;;6153498;23;20412;-78
2023/02/20 15:47:50;;;;;;;;;;;;;;;;;;6155656;23;19908;-79
2023/02/20 15:50:16;;;;;;;;;;;;;;;;;;6178335;23;20007;-80
2023/02/20 15:52:41;;;;;;;;;;;;;;;;;;6155753;23;19967;-78
2023/02/20 15:55:06;;;;;;;;;;;;;;;;;;6155449;23;20308;-79
2023/02/20 15:57:32;;;;;;;;;;;;;;;;;;6153828;23;19909;-78
2023/02/20 15:59:57;;;;;;;;;;;;;;;;;;6155677;23;20362;-79
2023/02/20 16:02:23;;;;;;;;;;;;;;;;;;6178581;23;19940;-78
2023/02/20 16:04:48;;;;;;;;;;;;;;;;;;6178597;23;19916;-80
2023/02/20 16:07:14;;;;;;;;;;;;;;;;;;6155406;23;19916;-80
2023/02/20 16:09:39;;;;;;;;;;;;;;;;;;6155982;23;19913;-81
2023/02/20 16:12:05;;;;;;;;;;;;;;;;;;6155445;23;20042;-79
2023/02/20 16:14:30;;;;;;;;;;;;;;;;;;6179427;23;19916;-81
2023/02/20 16:16:56;;;;;;;;;;;;;;;;;;6155573;23;20368;-80
2023/02/20 16:19:21;;;;;;;;;;;;;;;;;;6155852;23;19916;-81
2023/02/20 16:21:46;;;;;;;;;;;;;;;;;;6156677;23;20279;-78
2023/02/20 16:24:12;;;;;;;;;;;;;;;;;;6162032;23;19908;-79
2023/02/20 16:26:37;;;;;;;;;;;;;;;;;;6166961;23;19932;-81
2023/02/20 16:29:02;;;;;;;;;;;;;;;;;;6170428;23;20402;-81
2023/02/20 16:31:28;;;;;;;;;;;;;;;;;;6194185;23;19909;-78
2023/02/20 16:33:53;;;;;;;;;;;;;;;;;;6171586;23;19919;-84
2023/02/20 16:36:18;;;;;;;;;;;;;;;;;;6177212;23;19920;-85
2023/02/20 16:38:44;;;;;;;;;;;;;;;;;;6174732;23;20235;-80
2023/02/20 16:41:09;;;;;;;;;;;;;;;;;;6198757;23;19897;-89
2023/02/20 16:43:35;;;;;;;;;;;;;;;;;;6180083;23;19963;-90
2023/02/20 16:46:00;;;;;;;;;;;;;;;;;;6155529;23;19909;-91
2023/02/20 16:48:26;;;;;;;;;;;;;;;;;;6154155;23;19908;-92
2023/02/20 16:50:52;;;;;;;;;;;;;;;;;;6150867;23;19908;-91
2023/02/20 16:53:17;;;;;;;;;;;;;;;;;;6144756;23;19928;-91